sensor_id;sensor_type;location;lat;lon;timestamp;temperature;humidity
3850;DHT22;1940;51.052;13.678;2024-03-07T00:01:45;4.60;94.10
3850;DHT22;1940;51.052;13.678;2024-03-07T00:04:10;4.50;94.50
3850;DHT22;1940;51.052;13.678;2024-03-07T00:06:35;4.60;94.90
3850;DHT22;1940;51.052;13.678;2024-03-07T00:09:01;4.70;94.90
3850;DHT22;1940;51.052;13.678;2024-03-07T00:11:28;4.70;94.80
3850;DHT22;1940;51.052;13.678;2024-03-07T00:13:53;4.80;94.80
3850;DHT22;1940;51.052;13.678;2024-03-07T00:16:19;4.70;95.00
3850;DHT22;1940;51.052;13.678;2024-03-07T00:18:45;4.80;95.00
3850;DHT22;1940;51.052;13.678;2024-03-07T00:21:12;4.70;95.10
3850;DHT22;1940;51.052;13.678;2024-03-07T00:23:37;4.70;95.20
3850;DHT22;1940;51.052;13.678;2024-03-07T00:26:04;4.70;95.20
3850;DHT22;1940;51.052;13.678;2024-03-07T00:28:29;4.70;95.20
3850;DHT22;1940;51.052;13.678;2024-03-07T00:30:58;4.70;95.20
3850;DHT22;1940;51.052;13.678;2024-03-07T00:33:24;4.80;95.20
3850;DHT22;1940;51.052;13.678;2024-03-07T00:35:50;4.80;95.20
3850;DHT22;1940;51.052;13.678;2024-03-07T00:38:16;4.80;95.20
3850;DHT22;1940;51.052;13.678;2024-03-07T00:40:41;4.80;95.20
3850;DHT22;1940;51.052;13.678;2024-03-07T00:43:07;4.80;95.20
3850;DHT22;1940;51.052;13.678;2024-03-07T00:45:32;4.80;95.20
3850;DHT22;1940;51.052;13.678;2024-03-07T00:47:58;4.70;95.20
3850;DHT22;1940;51.052;13.678;2024-03-07T00:50:24;4.80;95.20
3850;DHT22;1940;51.052;13.678;2024-03-07T00:52:50;4.80;95.20
3850;DHT22;1940;51.052;13.678;2024-03-07T00:55:16;4.80;95.20
3850;DHT22;1940;51.052;13.678;2024-03-07T00:57:41;4.90;95.20
3850;DHT22;1940;51.052;13.678;2024-03-07T01:00:07;5.00;95.20
3850;DHT22;1940;51.052;13.678;2024-03-07T01:02:40;5.00;95.20
3850;DHT22;1940;51.052;13.678;2024-03-07T01:05:09;5.00;95.20
3850;DHT22;1940;51.052;13.678;2024-03-07T01:07:35;5.00;95.20
3850;DHT22;1940;51.052;13.678;2024-03-07T01:10:03;5.00;95.20
3850;DHT22;1940;51.052;13.678;2024-03-07T01:12:28;5.10;95.20
3850;DHT22;1940;51.052;13.678;2024-03-07T01:14:56;5.10;95.20
3850;DHT22;1940;51.052;13.678;2024-03-07T01:17:22;5.10;95.20
3850;DHT22;1940;51.052;13.678;2024-03-07T01:19:49;5.20;95.20
3850;DHT22;1940;51.052;13.678;2024-03-07T01:22:14;5.30;95.20
3850;DHT22;1940;51.052;13.678;2024-03-07T01:24:40;5.20;95.20
3850;DHT22;1940;51.052;13.678;2024-03-07T01:27:06;5.30;95.20
3850;DHT22;1940;51.052;13.678;2024-03-07T01:29:31;5.30;95.20
3850;DHT22;1940;51.052;13.678;2024-03-07T01:31:57;5.20;95.20
3850;DHT22;1940;51.052;13.678;2024-03-07T01:34:23;5.20;95.20
3850;DHT22;1940;51.052;13.678;2024-03-07T01:36:48;5.30;95.20
3850;DHT22;1940;51.052;13.678;2024-03-07T01:39:14;5.30;95.20
3850;DHT22;1940;51.052;13.678;2024-03-07T01:41:39;5.30;95.20
3850;DHT22;1940;51.052;13.678;2024-03-07T01:44:05;5.30;95.20
3850;DHT22;1940;51.052;13.678;2024-03-07T01:46:32;5.30;95.20
3850;DHT22;1940;51.052;13.678;2024-03-07T01:48:58;5.30;95.20
3850;DHT22;1940;51.052;13.678;2024-03-07T01:51:24;5.30;95.20
3850;DHT22;1940;51.052;13.678;2024-03-07T01:53:51;5.50;95.20
3850;DHT22;1940;51.052;13.678;2024-03-07T01:56:17;5.50;95.20
3850;DHT22;1940;51.052;13.678;2024-03-07T01:58:49;5.50;95.20
3850;DHT22;1940;51.052;13.678;2024-03-07T02:01:14;5.50;95.20
3850;DHT22;1940;51.052;13.678;2024-03-07T02:03:40;5.40;95.20
3850;DHT22;1940;51.052;13.678;2024-03-07T02:06:07;5.40;95.20
3850;DHT22;1940;51.052;13.678;2024-03-07T02:08:33;5.50;95.20
3850;DHT22;1940;51.052;13.678;2024-03-07T02:11:00;5.30;95.20
3850;DHT22;1940;51.052;13.678;2024-03-07T02:13:26;5.30;95.20
3850;DHT22;1940;51.052;13.678;2024-03-07T02:15:54;5.20;95.20
3850;DHT22;1940;51.052;13.678;2024-03-07T02:18:20;5.20;95.20
3850;DHT22;1940;51.052;13.678;2024-03-07T02:20:46;5.20;95.20
3850;DHT22;1940;51.052;13.678;2024-03-07T02:23:12;5.20;95.20
3850;DHT22;1940;51.052;13.678;2024-03-07T02:25:38;5.10;95.20
3850;DHT22;1940;51.052;13.678;2024-03-07T02:28:04;5.10;95.20
3850;DHT22;1940;51.052;13.678;2024-03-07T02:30:30;5.20;95.20
3850;DHT22;1940;51.052;13.678;2024-03-07T02:32:59;5.20;95.20
3850;DHT22;1940;51.052;13.678;2024-03-07T02:35:33;5.30;95.20
3850;DHT22;1940;51.052;13.678;2024-03-07T02:38:01;5.40;95.20
3850;DHT22;1940;51.052;13.678;2024-03-07T02:40:27;5.50;95.20
3850;DHT22;1940;51.052;13.678;2024-03-07T02:42:52;5.50;95.20
3850;DHT22;1940;51.052;13.678;2024-03-07T02:45:18;5.40;95.20
3850;DHT22;1940;51.052;13.678;2024-03-07T02:47:43;5.40;95.20
3850;DHT22;1940;51.052;13.678;2024-03-07T02:50:10;5.40;95.20
3850;DHT22;1940;51.052;13.678;2024-03-07T02:52:35;5.50;95.20
3850;DHT22;1940;51.052;13.678;2024-03-07T02:55:01;5.50;95.20
3850;DHT22;1940;51.052;13.678;2024-03-07T02:57:29;5.50;95.20
3850;DHT22;1940;51.052;13.678;2024-03-07T02:59:54;5.60;95.20
3850;DHT22;1940;51.052;13.678;2024-03-07T03:02:20;5.60;95.20
3850;DHT22;1940;51.052;13.678;2024-03-07T03:04:46;5.50;95.20
3850;DHT22;1940;51.052;13.678;2024-03-07T03:07:11;5.50;95.20
3850;DHT22;1940;51.052;13.678;2024-03-07T03:09:37;5.50;95.20
3850;DHT22;1940;51.052;13.678;2024-03-07T03:12:11;5.40;95.20
3850;DHT22;1940;51.052;13.678;2024-03-07T03:14:37;5.40;95.20
3850;DHT22;1940;51.052;13.678;2024-03-07T03:17:03;5.50;95.20
3850;DHT22;1940;51.052;13.678;2024-03-07T03:19:28;5.40;95.20
3850;DHT22;1940;51.052;13.678;2024-03-07T03:21:54;5.40;95.20
3850;DHT22;1940;51.052;13.678;2024-03-07T03:24:21;5.50;95.20
3850;DHT22;1940;51.052;13.678;2024-03-07T03:26:47;5.50;95.20
3850;DHT22;1940;51.052;13.678;2024-03-07T03:29:12;5.50;95.20
3850;DHT22;1940;51.052;13.678;2024-03-07T03:31:39;5.50;95.20
3850;DHT22;1940;51.052;13.678;2024-03-07T03:34:05;5.50;95.20
3850;DHT22;1940;51.052;13.678;2024-03-07T03:36:30;5.50;95.20
3850;DHT22;1940;51.052;13.678;2024-03-07T03:38:56;5.50;95.20
3850;DHT22;1940;51.052;13.678;2024-03-07T03:41:22;5.50;95.20
3850;DHT22;1940;51.052;13.678;2024-03-07T03:43:48;5.50;95.20
3850;DHT22;1940;51.052;13.678;2024-03-07T03:46:13;5.50;95.20
3850;DHT22;1940;51.052;13.678;2024-03-07T03:48:39;5.50;95.20
3850;DHT22;1940;51.052;13.678;2024-03-07T03:51:10;5.50;95.20
3850;DHT22;1940;51.052;13.678;2024-03-07T03:53:38;5.40;95.20
3850;DHT22;1940;51.052;13.678;2024-03-07T03:56:04;5.40;95.20
3850;DHT22;1940;51.052;13.678;2024-03-07T03:58:30;5.50;95.20
3850;DHT22;1940;51.052;13.678;2024-03-07T04:00:56;5.50;95.20
3850;DHT22;1940;51.052;13.678;2024-03-07T04:03:21;5.40;95.20
3850;DHT22;1940;51.052;13.678;2024-03-07T04:05:46;5.30;95.20
3850;DHT22;1940;51.052;13.678;2024-03-07T04:08:12;5.30;95.20
3850;DHT22;1940;51.052;13.678;2024-03-07T04:10:38;5.40;95.20
3850;DHT22;1940;51.052;13.678;2024-03-07T04:13:04;5.30;95.20
3850;DHT22;1940;51.052;13.678;2024-03-07T04:15:29;5.30;95.20
3850;DHT22;1940;51.052;13.678;2024-03-07T04:17:57;5.30;95.20
3850;DHT22;1940;51.052;13.678;2024-03-07T04:20:22;5.30;95.20
3850;DHT22;1940;51.052;13.678;2024-03-07T04:22:50;5.30;95.20
3850;DHT22;1940;51.052;13.678;2024-03-07T04:25:16;5.30;95.20
3850;DHT22;1940;51.052;13.678;2024-03-07T04:27:41;5.30;95.20
3850;DHT22;1940;51.052;13.678;2024-03-07T04:30:07;5.30;95.20
3850;DHT22;1940;51.052;13.678;2024-03-07T04:32:36;5.30;95.00
3850;DHT22;1940;51.052;13.678;2024-03-07T04:35:01;5.20;94.80
3850;DHT22;1940;51.052;13.678;2024-03-07T04:37:33;5.10;95.10
3850;DHT22;1940;51.052;13.678;2024-03-07T04:40:07;5.10;95.10
3850;DHT22;1940;51.052;13.678;2024-03-07T04:42:44;5.00;94.90
3850;DHT22;1940;51.052;13.678;2024-03-07T04:45:11;4.90;95.10
3850;DHT22;1940;51.052;13.678;2024-03-07T04:47:41;4.90;95.10
3850;DHT22;1940;51.052;13.678;2024-03-07T04:50:13;4.80;95.20
3850;DHT22;1940;51.052;13.678;2024-03-07T04:52:42;4.80;95.20
3850;DHT22;1940;51.052;13.678;2024-03-07T04:55:08;4.70;95.20
3850;DHT22;1940;51.052;13.678;2024-03-07T04:57:38;4.70;95.20
3850;DHT22;1940;51.052;13.678;2024-03-07T05:00:10;4.70;95.20
3850;DHT22;1940;51.052;13.678;2024-03-07T05:02:43;4.60;95.20
3850;DHT22;1940;51.052;13.678;2024-03-07T05:05:08;4.60;95.20
3850;DHT22;1940;51.052;13.678;2024-03-07T05:07:34;4.60;95.20
3850;DHT22;1940;51.052;13.678;2024-03-07T05:10:05;4.60;95.10
3850;DHT22;1940;51.052;13.678;2024-03-07T05:12:31;4.50;95.00
3850;DHT22;1940;51.052;13.678;2024-03-07T05:14:57;4.50;94.80
3850;DHT22;1940;51.052;13.678;2024-03-07T05:17:22;4.50;95.00
3850;DHT22;1940;51.052;13.678;2024-03-07T05:19:48;4.50;94.90
3850;DHT22;1940;51.052;13.678;2024-03-07T05:22:15;4.50;95.10
3850;DHT22;1940;51.052;13.678;2024-03-07T05:24:42;4.50;94.90
3850;DHT22;1940;51.052;13.678;2024-03-07T05:27:10;4.50;95.10
3850;DHT22;1940;51.052;13.678;2024-03-07T05:29:39;4.50;94.80
3850;DHT22;1940;51.052;13.678;2024-03-07T05:34:46;4.40;94.70
3850;DHT22;1940;51.052;13.678;2024-03-07T05:37:12;4.20;94.30
3850;DHT22;1940;51.052;13.678;2024-03-07T05:39:38;4.20;93.90
3850;DHT22;1940;51.052;13.678;2024-03-07T05:42:04;4.10;93.50
3850;DHT22;1940;51.052;13.678;2024-03-07T05:44:32;4.10;93.10
3850;DHT22;1940;51.052;13.678;2024-03-07T05:46:57;4.00;92.90
3850;DHT22;1940;51.052;13.678;2024-03-07T05:49:23;4.00;92.70
3850;DHT22;1940;51.052;13.678;2024-03-07T05:51:48;4.00;92.30
3850;DHT22;1940;51.052;13.678;2024-03-07T05:54:14;4.00;92.10
3850;DHT22;1940;51.052;13.678;2024-03-07T05:56:41;3.90;91.80
3850;DHT22;1940;51.052;13.678;2024-03-07T05:59:07;3.90;91.70
3850;DHT22;1940;51.052;13.678;2024-03-07T06:01:35;3.90;91.60
3850;DHT22;1940;51.052;13.678;2024-03-07T06:04:01;3.90;91.20
3850;DHT22;1940;51.052;13.678;2024-03-07T06:06:28;3.90;91.10
3850;DHT22;1940;51.052;13.678;2024-03-07T06:08:53;3.90;91.30
3850;DHT22;1940;51.052;13.678;2024-03-07T06:11:19;3.80;91.30
3850;DHT22;1940;51.052;13.678;2024-03-07T06:13:47;3.80;91.30
3850;DHT22;1940;51.052;13.678;2024-03-07T06:16:13;3.80;91.40
3850;DHT22;1940;51.052;13.678;2024-03-07T06:18:42;3.80;91.40
3850;DHT22;1940;51.052;13.678;2024-03-07T06:21:08;3.70;91.20
3850;DHT22;1940;51.052;13.678;2024-03-07T06:23:34;3.70;91.40
3850;DHT22;1940;51.052;13.678;2024-03-07T06:26:00;3.70;91.30
3850;DHT22;1940;51.052;13.678;2024-03-07T06:28:26;3.70;91.20
3850;DHT22;1940;51.052;13.678;2024-03-07T06:30:54;3.70;91.00
3850;DHT22;1940;51.052;13.678;2024-03-07T06:33:20;3.60;91.00
3850;DHT22;1940;51.052;13.678;2024-03-07T06:35:46;3.60;90.90
3850;DHT22;1940;51.052;13.678;2024-03-07T06:38:12;3.60;90.70
3850;DHT22;1940;51.052;13.678;2024-03-07T06:40:38;3.60;90.80
3850;DHT22;1940;51.052;13.678;2024-03-07T06:43:10;3.60;90.90
3850;DHT22;1940;51.052;13.678;2024-03-07T06:45:36;3.70;90.60
3850;DHT22;1940;51.052;13.678;2024-03-07T06:48:06;3.80;90.30
3850;DHT22;1940;51.052;13.678;2024-03-07T06:50:36;3.80;90.20
3850;DHT22;1940;51.052;13.678;2024-03-07T06:53:02;3.80;90.30
3850;DHT22;1940;51.052;13.678;2024-03-07T06:55:28;3.90;90.10
3850;DHT22;1940;51.052;13.678;2024-03-07T06:57:54;4.10;89.90
3850;DHT22;1940;51.052;13.678;2024-03-07T07:00:20;4.20;89.30
3850;DHT22;1940;51.052;13.678;2024-03-07T07:02:47;4.40;88.60
3850;DHT22;1940;51.052;13.678;2024-03-07T07:05:13;4.40;87.90
3850;DHT22;1940;51.052;13.678;2024-03-07T07:07:41;4.40;87.40
3850;DHT22;1940;51.052;13.678;2024-03-07T07:10:09;4.40;86.80
3850;DHT22;1940;51.052;13.678;2024-03-07T07:12:42;4.50;86.40
3850;DHT22;1940;51.052;13.678;2024-03-07T07:15:08;4.60;86.50
3850;DHT22;1940;51.052;13.678;2024-03-07T07:17:33;4.60;86.10
3850;DHT22;1940;51.052;13.678;2024-03-07T07:19:59;4.80;85.60
3850;DHT22;1940;51.052;13.678;2024-03-07T07:22:25;5.00;84.80
3850;DHT22;1940;51.052;13.678;2024-03-07T07:24:51;5.20;84.50
3850;DHT22;1940;51.052;13.678;2024-03-07T07:27:16;5.10;83.50
3850;DHT22;1940;51.052;13.678;2024-03-07T07:29:44;5.20;83.50
3850;DHT22;1940;51.052;13.678;2024-03-07T07:32:09;5.30;82.80
3850;DHT22;1940;51.052;13.678;2024-03-07T07:34:37;5.60;82.00
3850;DHT22;1940;51.052;13.678;2024-03-07T07:37:04;6.20;81.00
3850;DHT22;1940;51.052;13.678;2024-03-07T07:39:29;6.50;78.30
3850;DHT22;1940;51.052;13.678;2024-03-07T07:41:55;6.50;76.10
3850;DHT22;1940;51.052;13.678;2024-03-07T07:44:20;6.10;75.80
3850;DHT22;1940;51.052;13.678;2024-03-07T07:46:47;5.80;76.50
3850;DHT22;1940;51.052;13.678;2024-03-07T07:49:14;5.50;76.20
3850;DHT22;1940;51.052;13.678;2024-03-07T07:51:40;5.30;77.10
3850;DHT22;1940;51.052;13.678;2024-03-07T07:54:05;5.10;77.80
3850;DHT22;1940;51.052;13.678;2024-03-07T07:56:30;4.90;76.60
3850;DHT22;1940;51.052;13.678;2024-03-07T07:58:56;4.70;77.10
3850;DHT22;1940;51.052;13.678;2024-03-07T08:01:22;4.70;76.80
3850;DHT22;1940;51.052;13.678;2024-03-07T08:03:47;4.80;76.90
3850;DHT22;1940;51.052;13.678;2024-03-07T08:06:13;5.00;76.90
3850;DHT22;1940;51.052;13.678;2024-03-07T08:08:39;5.10;77.30
3850;DHT22;1940;51.052;13.678;2024-03-07T08:11:04;5.20;77.00
3850;DHT22;1940;51.052;13.678;2024-03-07T08:13:30;5.60;77.10
3850;DHT22;1940;51.052;13.678;2024-03-07T08:15:55;6.20;75.30
3850;DHT22;1940;51.052;13.678;2024-03-07T08:18:21;6.70;73.40
3850;DHT22;1940;51.052;13.678;2024-03-07T08:20:47;6.80;72.50
3850;DHT22;1940;51.052;13.678;2024-03-07T08:23:12;6.80;70.90
3850;DHT22;1940;51.052;13.678;2024-03-07T08:25:40;6.90;71.00
3850;DHT22;1940;51.052;13.678;2024-03-07T08:28:06;7.10;70.20
3850;DHT22;1940;51.052;13.678;2024-03-07T08:30:32;7.50;68.90
3850;DHT22;1940;51.052;13.678;2024-03-07T08:32:58;7.90;68.60
3850;DHT22;1940;51.052;13.678;2024-03-07T08:35:30;9.00;65.00
3850;DHT22;1940;51.052;13.678;2024-03-07T08:37:56;9.70;61.90
3850;DHT22;1940;51.052;13.678;2024-03-07T08:40:29;10.80;60.50
3850;DHT22;1940;51.052;13.678;2024-03-07T08:43:00;11.20;58.60
3850;DHT22;1940;51.052;13.678;2024-03-07T08:45:26;11.80;58.00
3850;DHT22;1940;51.052;13.678;2024-03-07T08:47:53;12.30;56.80
3850;DHT22;1940;51.052;13.678;2024-03-07T08:50:25;12.50;55.90
3850;DHT22;1940;51.052;13.678;2024-03-07T08:52:51;12.60;55.90
3850;DHT22;1940;51.052;13.678;2024-03-07T08:55:21;13.40;54.00
3850;DHT22;1940;51.052;13.678;2024-03-07T08:57:47;13.80;52.00
3850;DHT22;1940;51.052;13.678;2024-03-07T09:00:15;14.10;50.10
3850;DHT22;1940;51.052;13.678;2024-03-07T09:02:48;13.80;50.60
3850;DHT22;1940;51.052;13.678;2024-03-07T09:05:17;13.80;51.10
3850;DHT22;1940;51.052;13.678;2024-03-07T09:07:44;13.20;51.10
3850;DHT22;1940;51.052;13.678;2024-03-07T09:10:11;12.40;52.50
3850;DHT22;1940;51.052;13.678;2024-03-07T09:12:37;11.70;54.50
3850;DHT22;1940;51.052;13.678;2024-03-07T09:15:04;10.60;55.50
3850;DHT22;1940;51.052;13.678;2024-03-07T09:17:29;9.70;57.80
3850;DHT22;1940;51.052;13.678;2024-03-07T09:19:55;9.30;58.70
3850;DHT22;1940;51.052;13.678;2024-03-07T09:22:20;8.60;60.20
3850;DHT22;1940;51.052;13.678;2024-03-07T09:24:46;8.30;61.30
3850;DHT22;1940;51.052;13.678;2024-03-07T09:27:11;7.70;61.20
3850;DHT22;1940;51.052;13.678;2024-03-07T09:29:40;7.40;62.20
3850;DHT22;1940;51.052;13.678;2024-03-07T09:32:06;7.60;60.80
3850;DHT22;1940;51.052;13.678;2024-03-07T09:34:34;7.70;60.70
3850;DHT22;1940;51.052;13.678;2024-03-07T09:37:01;7.70;61.10
3850;DHT22;1940;51.052;13.678;2024-03-07T09:39:26;7.50;60.80
3850;DHT22;1940;51.052;13.678;2024-03-07T09:41:52;7.00;60.70
3850;DHT22;1940;51.052;13.678;2024-03-07T09:44:20;6.90;60.70
3850;DHT22;1940;51.052;13.678;2024-03-07T09:46:54;6.80;61.70
3850;DHT22;1940;51.052;13.678;2024-03-07T09:49:20;7.00;62.30
3850;DHT22;1940;51.052;13.678;2024-03-07T09:51:47;7.10;62.60
3850;DHT22;1940;51.052;13.678;2024-03-07T09:54:12;7.00;62.40
3850;DHT22;1940;51.052;13.678;2024-03-07T09:56:41;6.90;62.50
3850;DHT22;1940;51.052;13.678;2024-03-07T09:59:11;6.80;62.90
3850;DHT22;1940;51.052;13.678;2024-03-07T10:01:41;6.80;63.00
3850;DHT22;1940;51.052;13.678;2024-03-07T10:04:12;6.80;63.00
3850;DHT22;1940;51.052;13.678;2024-03-07T10:06:42;6.90;63.40
3850;DHT22;1940;51.052;13.678;2024-03-07T10:09:11;6.80;63.50
3850;DHT22;1940;51.052;13.678;2024-03-07T10:11:42;6.80;64.60
3850;DHT22;1940;51.052;13.678;2024-03-07T10:14:09;6.70;64.50
3850;DHT22;1940;51.052;13.678;2024-03-07T10:16:35;6.50;65.30
3850;DHT22;1940;51.052;13.678;2024-03-07T10:19:04;6.50;65.70
3850;DHT22;1940;51.052;13.678;2024-03-07T10:21:30;6.50;65.30
3850;DHT22;1940;51.052;13.678;2024-03-07T10:24:08;6.50;65.80
3850;DHT22;1940;51.052;13.678;2024-03-07T10:26:35;6.50;65.90
3850;DHT22;1940;51.052;13.678;2024-03-07T10:29:01;6.50;65.60
3850;DHT22;1940;51.052;13.678;2024-03-07T10:31:33;6.50;65.10
3850;DHT22;1940;51.052;13.678;2024-03-07T10:34:01;6.50;65.40
3850;DHT22;1940;51.052;13.678;2024-03-07T10:36:28;6.40;65.70
3850;DHT22;1940;51.052;13.678;2024-03-07T10:38:56;6.40;65.30
3850;DHT22;1940;51.052;13.678;2024-03-07T10:41:23;6.40;66.00
3850;DHT22;1940;51.052;13.678;2024-03-07T10:43:57;6.40;66.60
3850;DHT22;1940;51.052;13.678;2024-03-07T10:46:25;6.50;66.70
3850;DHT22;1940;51.052;13.678;2024-03-07T10:48:54;6.50;66.30
3850;DHT22;1940;51.052;13.678;2024-03-07T10:54:24;6.60;66.50
3850;DHT22;1940;51.052;13.678;2024-03-07T10:57:15;6.30;66.80
3850;DHT22;1940;51.052;13.678;2024-03-07T10:59:48;6.20;67.80
3850;DHT22;1940;51.052;13.678;2024-03-07T11:04:50;6.30;68.90
3850;DHT22;1940;51.052;13.678;2024-03-07T11:07:20;6.30;69.10
3850;DHT22;1940;51.052;13.678;2024-03-07T11:09:49;6.30;69.30
3850;DHT22;1940;51.052;13.678;2024-03-07T11:12:15;6.10;70.10
3850;DHT22;1940;51.052;13.678;2024-03-07T11:14:43;6.20;70.20
3850;DHT22;1940;51.052;13.678;2024-03-07T11:17:09;6.10;70.20
3850;DHT22;1940;51.052;13.678;2024-03-07T11:19:38;6.10;70.50
3850;DHT22;1940;51.052;13.678;2024-03-07T11:22:05;5.80;70.60
3850;DHT22;1940;51.052;13.678;2024-03-07T11:24:41;5.90;71.20
3850;DHT22;1940;51.052;13.678;2024-03-07T11:27:10;6.10;69.40
3850;DHT22;1940;51.052;13.678;2024-03-07T11:29:49;6.10;68.90
3850;DHT22;1940;51.052;13.678;2024-03-07T11:32:18;6.10;68.90
3850;DHT22;1940;51.052;13.678;2024-03-07T11:34:46;6.10;68.90
3850;DHT22;1940;51.052;13.678;2024-03-07T11:37:38;6.00;69.70
3850;DHT22;1940;51.052;13.678;2024-03-07T11:40:58;6.00;70.20
3850;DHT22;1940;51.052;13.678;2024-03-07T11:42:57;6.00;70.10
3850;DHT22;1940;51.052;13.678;2024-03-07T11:45:26;6.20;69.80
3850;DHT22;1940;51.052;13.678;2024-03-07T11:47:53;6.20;68.20
3850;DHT22;1940;51.052;13.678;2024-03-07T11:50:37;6.00;68.20
3850;DHT22;1940;51.052;13.678;2024-03-07T11:53:05;5.90;69.30
3850;DHT22;1940;51.052;13.678;2024-03-07T11:55:34;5.80;69.20
3850;DHT22;1940;51.052;13.678;2024-03-07T11:58:19;5.70;68.90
3850;DHT22;1940;51.052;13.678;2024-03-07T12:00:48;5.70;68.30
3850;DHT22;1940;51.052;13.678;2024-03-07T12:03:15;5.60;68.30
3850;DHT22;1940;51.052;13.678;2024-03-07T12:05:49;5.50;69.20
3850;DHT22;1940;51.052;13.678;2024-03-07T12:08:16;5.60;69.20
3850;DHT22;1940;51.052;13.678;2024-03-07T12:10:43;5.50;69.40
3850;DHT22;1940;51.052;13.678;2024-03-07T12:13:12;5.40;69.80
3850;DHT22;1940;51.052;13.678;2024-03-07T12:15:41;5.40;70.10
3850;DHT22;1940;51.052;13.678;2024-03-07T12:18:08;5.40;69.90
3850;DHT22;1940;51.052;13.678;2024-03-07T12:20:41;5.40;69.60
3850;DHT22;1940;51.052;13.678;2024-03-07T12:23:08;5.30;69.60
3850;DHT22;1940;51.052;13.678;2024-03-07T12:25:40;5.40;69.80
3850;DHT22;1940;51.052;13.678;2024-03-07T12:28:10;5.40;69.60
3850;DHT22;1940;51.052;13.678;2024-03-07T12:30:48;5.50;69.10
3850;DHT22;1940;51.052;13.678;2024-03-07T12:33:15;5.60;68.00
3850;DHT22;1940;51.052;13.678;2024-03-07T12:35:48;5.60;67.90
3850;DHT22;1940;51.052;13.678;2024-03-07T12:38:18;5.60;68.20
3850;DHT22;1940;51.052;13.678;2024-03-07T12:40:44;5.50;68.10
3850;DHT22;1940;51.052;13.678;2024-03-07T12:43:19;5.40;68.10
3850;DHT22;1940;51.052;13.678;2024-03-07T12:45:51;5.40;68.60
3850;DHT22;1940;51.052;13.678;2024-03-07T12:48:20;5.50;68.70
3850;DHT22;1940;51.052;13.678;2024-03-07T12:50:49;5.50;68.60
3850;DHT22;1940;51.052;13.678;2024-03-07T12:53:19;5.60;68.60
3850;DHT22;1940;51.052;13.678;2024-03-07T12:55:44;5.80;66.50
3850;DHT22;1940;51.052;13.678;2024-03-07T12:58:10;5.90;65.80
3850;DHT22;1940;51.052;13.678;2024-03-07T13:00:39;6.10;65.70
3850;DHT22;1940;51.052;13.678;2024-03-07T13:03:07;6.20;65.20
3850;DHT22;1940;51.052;13.678;2024-03-07T13:05:32;6.20;65.10
3850;DHT22;1940;51.052;13.678;2024-03-07T13:07:58;6.30;65.00
3850;DHT22;1940;51.052;13.678;2024-03-07T13:10:23;6.40;64.90
3850;DHT22;1940;51.052;13.678;2024-03-07T13:12:49;6.50;64.50
3850;DHT22;1940;51.052;13.678;2024-03-07T13:15:16;6.50;64.70
3850;DHT22;1940;51.052;13.678;2024-03-07T13:17:41;6.50;64.00
3850;DHT22;1940;51.052;13.678;2024-03-07T13:20:16;6.50;62.80
3850;DHT22;1940;51.052;13.678;2024-03-07T13:22:42;6.60;63.10
3850;DHT22;1940;51.052;13.678;2024-03-07T13:25:15;6.60;63.10
3850;DHT22;1940;51.052;13.678;2024-03-07T13:28:01;6.40;63.80
3850;DHT22;1940;51.052;13.678;2024-03-07T13:30:28;6.50;64.70
3850;DHT22;1940;51.052;13.678;2024-03-07T13:32:55;6.60;64.70
3850;DHT22;1940;51.052;13.678;2024-03-07T13:35:21;6.70;64.10
3850;DHT22;1940;51.052;13.678;2024-03-07T13:37:48;6.70;63.80
3850;DHT22;1940;51.052;13.678;2024-03-07T13:40:14;6.60;63.70
3850;DHT22;1940;51.052;13.678;2024-03-07T13:42:56;6.50;63.80
3850;DHT22;1940;51.052;13.678;2024-03-07T13:45:32;6.60;63.70
3850;DHT22;1940;51.052;13.678;2024-03-07T13:48:04;6.70;63.80
3850;DHT22;1940;51.052;13.678;2024-03-07T13:50:31;6.90;63.70
3850;DHT22;1940;51.052;13.678;2024-03-07T13:52:57;7.10;62.20
3850;DHT22;1940;51.052;13.678;2024-03-07T14:01:33;7.10;61.80
3850;DHT22;1940;51.052;13.678;2024-03-07T14:15:49;6.90;61.50
3850;DHT22;1940;51.052;13.678;2024-03-07T14:19:13;6.80;61.80
3850;DHT22;1940;51.052;13.678;2024-03-07T14:22:24;6.90;61.80
3850;DHT22;1940;51.052;13.678;2024-03-07T14:25:16;6.90;62.00
3850;DHT22;1940;51.052;13.678;2024-03-07T14:30:48;7.00;62.00
3850;DHT22;1940;51.052;13.678;2024-03-07T14:33:20;7.00;62.00
3850;DHT22;1940;51.052;13.678;2024-03-07T14:36:09;6.80;62.30
3850;DHT22;1940;51.052;13.678;2024-03-07T14:38:52;6.80;62.40
3850;DHT22;1940;51.052;13.678;2024-03-07T14:44:05;6.70;62.60
3850;DHT22;1940;51.052;13.678;2024-03-07T14:46:32;6.70;63.00
3850;DHT22;1940;51.052;13.678;2024-03-07T14:48:59;6.70;62.90
3850;DHT22;1940;51.052;13.678;2024-03-07T14:51:24;6.70;63.00
3850;DHT22;1940;51.052;13.678;2024-03-07T14:53:51;6.70;63.40
3850;DHT22;1940;51.052;13.678;2024-03-07T14:56:16;6.80;63.20
3850;DHT22;1940;51.052;13.678;2024-03-07T14:58:45;6.90;62.40
3850;DHT22;1940;51.052;13.678;2024-03-07T15:01:11;6.80;62.50
3850;DHT22;1940;51.052;13.678;2024-03-07T15:03:38;6.70;63.10
3850;DHT22;1940;51.052;13.678;2024-03-07T15:06:05;6.70;63.40
3850;DHT22;1940;51.052;13.678;2024-03-07T15:08:34;6.70;62.20
3850;DHT22;1940;51.052;13.678;2024-03-07T15:11:18;6.70;62.00
3850;DHT22;1940;51.052;13.678;2024-03-07T15:13:46;6.70;62.30
3850;DHT22;1940;51.052;13.678;2024-03-07T15:16:11;6.60;62.50
3850;DHT22;1940;51.052;13.678;2024-03-07T15:18:37;6.60;62.80
3850;DHT22;1940;51.052;13.678;2024-03-07T15:21:02;6.70;62.80
3850;DHT22;1940;51.052;13.678;2024-03-07T15:23:30;6.70;62.70
3850;DHT22;1940;51.052;13.678;2024-03-07T15:25:56;6.60;62.70
3850;DHT22;1940;51.052;13.678;2024-03-07T15:28:21;6.60;63.00
3850;DHT22;1940;51.052;13.678;2024-03-07T15:30:47;6.60;63.30
3850;DHT22;1940;51.052;13.678;2024-03-07T15:33:13;6.60;63.30
3850;DHT22;1940;51.052;13.678;2024-03-07T15:35:40;6.60;62.90
3850;DHT22;1940;51.052;13.678;2024-03-07T15:38:06;6.50;63.30
3850;DHT22;1940;51.052;13.678;2024-03-07T15:40:32;6.40;63.20
3850;DHT22;1940;51.052;13.678;2024-03-07T15:42:59;6.40;63.40
3850;DHT22;1940;51.052;13.678;2024-03-07T15:45:27;6.40;63.20
3850;DHT22;1940;51.052;13.678;2024-03-07T15:50:20;6.30;63.40
3850;DHT22;1940;51.052;13.678;2024-03-07T15:52:47;6.30;63.80
3850;DHT22;1940;51.052;13.678;2024-03-07T15:55:13;6.30;63.70
3850;DHT22;1940;51.052;13.678;2024-03-07T15:57:43;6.20;63.80
3850;DHT22;1940;51.052;13.678;2024-03-07T16:00:10;6.20;64.10
3850;DHT22;1940;51.052;13.678;2024-03-07T16:02:55;6.20;63.90
3850;DHT22;1940;51.052;13.678;2024-03-07T16:05:25;6.10;64.20
3850;DHT22;1940;51.052;13.678;2024-03-07T16:07:52;6.10;64.50
3850;DHT22;1940;51.052;13.678;2024-03-07T16:10:21;6.10;64.50
3850;DHT22;1940;51.052;13.678;2024-03-07T16:12:51;6.00;64.50
3850;DHT22;1940;51.052;13.678;2024-03-07T16:15:17;5.90;64.70
3850;DHT22;1940;51.052;13.678;2024-03-07T16:17:46;5.90;64.70
3850;DHT22;1940;51.052;13.678;2024-03-07T16:20:11;5.90;64.70
3850;DHT22;1940;51.052;13.678;2024-03-07T16:22:41;5.90;64.90
3850;DHT22;1940;51.052;13.678;2024-03-07T16:25:11;5.90;65.10
3850;DHT22;1940;51.052;13.678;2024-03-07T16:27:37;5.90;65.20
3850;DHT22;1940;51.052;13.678;2024-03-07T16:30:04;5.90;65.40
3850;DHT22;1940;51.052;13.678;2024-03-07T16:32:40;5.90;65.30
3850;DHT22;1940;51.052;13.678;2024-03-07T16:35:06;5.90;65.10
3850;DHT22;1940;51.052;13.678;2024-03-07T16:37:40;5.80;65.30
3850;DHT22;1940;51.052;13.678;2024-03-07T16:42:42;5.70;65.80
3850;DHT22;1940;51.052;13.678;2024-03-07T16:45:12;5.70;66.20